Time;durP1;ratioP1;P1;durP2;ratioP2;P2;SDS_P1;SDS_P2;PMS_P1;PMS_P2;Temp;Humidity;BMP_temperature;BMP_pressure;BME280_temperature;BME280_humidity;BME280_pressure;Samples;Min_cycle;Max_cycle;Signal;HPM_P1;HPM_P2
2023/08/17 00:02:06;;;;;;;1.42;0.88;;;;;;;25.66;47.21;102232.00;5032643;28;20053;-34
2023/08/17 00:04:33;;;;;;;1.08;0.80;;;;;;;25.65;47.24;102229.44;5037969;28;20038;-34
2023/08/17 00:06:59;;;;;;;3.20;0.90;;;;;;;25.64;46.95;102231.31;5030915;28;20448;-34
2023/08/17 00:09:26;;;;;;;1.23;0.98;;;;;;;25.64;47.60;102227.75;5034978;28;20144;-35
2023/08/17 00:11:53;;;;;;;1.38;0.82;;;;;;;25.62;47.50;102227.94;5036877;28;20128;-35
2023/08/17 00:14:19;;;;;;;1.75;0.80;;;;;;;25.62;47.27;102225.22;5031696;28;20060;-34
2023/08/17 00:16:46;;;;;;;2.80;1.00;;;;;;;25.61;47.30;102228.97;5034131;28;20053;-34
2023/08/17 00:19:13;;;;;;;1.33;0.70;;;;;;;25.60;47.33;102233.50;5041520;28;20132;-34
2023/08/17 00:21:40;;;;;;;0.70;0.57;;;;;;;25.58;47.38;102232.84;5033917;28;20057;-34
2023/08/17 00:24:07;;;;;;;1.00;0.60;;;;;;;25.57;47.19;102233.88;5043101;28;20052;-34
2023/08/17 00:26:33;;;;;;;2.33;0.90;;;;;;;25.57;47.20;102231.16;5041829;28;20049;-35
2023/08/17 00:29:00;;;;;;;1.10;0.70;;;;;;;25.55;47.26;102225.03;5046485;28;20103;-34
2023/08/17 00:31:26;;;;;;;1.88;0.77;;;;;;;25.54;47.30;102236.09;5037933;28;20136;-35
2023/08/17 00:33:53;;;;;;;2.53;0.90;;;;;;;25.52;47.36;102224.53;5045091;28;20135;-35
2023/08/17 00:36:20;;;;;;;2.08;0.77;;;;;;;25.51;47.36;102226.41;5038787;28;20494;-34
2023/08/17 00:38:46;;;;;;;1.33;0.60;;;;;;;25.50;47.17;102227.41;5043075;28;20600;-34
2023/08/17 00:41:13;;;;;;;1.50;0.70;;;;;;;25.48;47.38;102237.59;5043767;28;20120;-34
2023/08/17 00:43:40;;;;;;;1.17;0.85;;;;;;;25.48;47.39;102232.16;5035553;28;20049;-34
2023/08/17 00:46:07;;;;;;;2.67;0.77;;;;;;;25.45;47.35;102224.38;5034454;28;20068;-35
2023/08/17 00:48:34;;;;;;;1.25;0.60;;;;;;;25.44;47.64;102228.09;5037207;28;20068;-34
2023/08/17 00:51:02;;;;;;;2.72;0.80;;;;;;;25.43;47.46;102226.41;5037606;28;20060;-34
2023/08/17 00:53:32;;;;;;;1.23;0.80;;;;;;;25.43;47.65;102225.56;5039158;28;20132;-34
2023/08/17 00:56:00;;;;;;;1.55;0.70;;;;;;;25.41;47.39;102217.59;5040176;28;20075;-34
2023/08/17 00:58:27;;;;;;;2.17;0.70;;;;;;;25.41;47.63;102209.44;5036460;28;20056;-34
2023/08/17 01:00:54;;;;;;;1.52;0.70;;;;;;;25.40;47.61;102217.75;5037854;28;20057;-34
2023/08/17 01:03:22;;;;;;;2.92;0.75;;;;;;;25.37;47.53;102210.81;5042212;28;20053;-34
2023/08/17 01:05:49;;;;;;;1.20;0.80;;;;;;;25.37;47.68;102205.38;5041378;28;20680;-34
2023/08/17 01:08:15;;;;;;;1.77;0.90;;;;;;;25.34;47.72;102211.97;5041860;28;20111;-34
2023/08/17 01:10:44;;;;;;;1.10;0.70;;;;;;;25.34;47.54;102211.13;5037367;28;20145;-34
2023/08/17 01:13:18;;;;;;;1.20;0.50;;;;;;;25.32;47.90;102215.88;5041733;28;20052;-34
2023/08/17 01:15:58;;;;;;;1.00;0.70;;;;;;;25.30;47.99;102209.78;5036696;28;20046;-34
2023/08/17 01:18:34;;;;;;;3.08;0.93;;;;;;;25.29;47.77;102206.22;5034617;28;20111;-34
2023/08/17 01:21:03;;;;;;;1.60;0.70;;;;;;;25.29;47.93;102216.22;5035352;28;20045;-34
2023/08/17 01:23:30;;;;;;;0.90;0.60;;;;;;;25.28;47.95;102215.34;5036389;28;20052;-34
2023/08/17 01:25:57;;;;;;;1.42;0.77;;;;;;;25.26;47.91;102208.41;5036249;28;20098;-34
2023/08/17 01:28:24;;;;;;;2.78;0.65;;;;;;;25.25;48.00;102206.72;5038200;28;20107;-34
2023/08/17 01:31:14;;;;;;;1.50;0.82;;;;;;;25.21;48.09;102210.78;5036962;28;20060;-34
2023/08/17 01:33:47;;;;;;;1.17;0.60;;;;;;;25.22;47.67;102207.06;5035705;28;21758;-34
2023/08/17 01:36:22;;;;;;;1.38;0.60;;;;;;;25.19;47.86;102207.38;5038725;28;20049;-34
2023/08/17 01:38:51;;;;;;;1.10;0.70;;;;;;;25.19;47.96;102207.38;5036515;28;20111;-34
2023/08/17 01:41:20;;;;;;;1.55;0.70;;;;;;;25.18;48.11;102211.13;5039592;28;20104;-34
2023/08/17 01:43:48;;;;;;;1.80;0.60;;;;;;;25.17;48.15;102212.16;5037259;28;20400;-34
2023/08/17 01:46:15;;;;;;;1.17;0.70;;;;;;;25.15;47.62;102206.03;5037968;28;20127;-34
2023/08/17 01:48:46;;;;;;;2.08;0.85;;;;;;;25.13;48.34;102211.63;5036602;28;20053;-34
2023/08/17 01:51:21;;;;;;;1.25;0.52;;;;;;;25.11;47.87;102211.78;5033764;28;20076;-34
2023/08/17 01:53:48;;;;;;;1.30;0.50;;;;;;;25.10;48.28;102211.97;5035697;28;20098;-34
2023/08/17 01:56:14;;;;;;;1.85;0.77;;;;;;;25.10;48.43;102217.38;5037245;28;20053;-34
2023/08/17 01:58:42;;;;;;;1.00;0.60;;;;;;;25.08;48.30;102214.78;5035799;28;20140;-34
2023/08/17 02:01:09;;;;;;;1.58;0.80;;;;;;;25.07;47.95;102213.09;5037035;28;20126;-33
2023/08/17 02:03:36;;;;;;;2.45;0.80;;;;;;;25.07;48.27;102214.97;5038150;28;20049;-33
2023/08/17 02:06:02;;;;;;;1.73;0.40;;;;;;;25.06;48.25;102210.56;5042970;28;20125;-33
2023/08/17 02:08:30;;;;;;;2.10;0.80;;;;;;;25.05;48.50;102209.72;5040252;28;20068;-34
2023/08/17 02:10:56;;;;;;;0.85;0.70;;;;;;;25.05;47.96;102215.16;5037034;28;20126;-33
2023/08/17 02:13:23;;;;;;;3.13;0.80;;;;;;;25.05;48.25;102207.00;5044658;28;20055;-33
2023/08/17 02:15:50;;;;;;;2.10;0.90;;;;;;;25.04;48.46;102202.56;5042310;28;20041;-33
2023/08/17 02:18:16;;;;;;;1.65;0.57;;;;;;;25.03;47.91;102198.16;5038665;28;20084;-33
2023/08/17 02:20:43;;;;;;;1.05;0.50;;;;;;;25.03;48.39;102200.88;5038424;28;20092;-33
2023/08/17 02:23:10;;;;;;;1.38;0.55;;;;;;;25.03;48.32;102195.47;5038072;28;20045;-33
2023/08/17 02:25:40;;;;;;;1.27;0.57;;;;;;;25.02;48.02;102196.47;5039142;28;20077;-33
2023/08/17 02:28:06;;;;;;;0.57;0.57;;;;;;;25.02;48.48;102196.47;5041912;28;20140;-33
2023/08/17 02:30:33;;;;;;;2.10;0.65;;;;;;;25.01;48.11;102193.94;5039162;28;20049;-33
2023/08/17 02:33:00;;;;;;;1.25;0.68;;;;;;;25.01;48.06;102196.66;5044530;28;20074;-34
2023/08/17 02:35:27;;;;;;;1.45;0.52;;;;;;;25.00;48.49;102192.22;5044806;28;20129;-34
2023/08/17 02:37:53;;;;;;;1.23;0.77;;;;;;;25.00;48.08;102186.81;5043776;28;20049;-34
2023/08/17 02:40:20;;;;;;;0.40;0.40;;;;;;;24.99;48.08;102185.97;5041829;28;20040;-34
2023/08/17 02:42:47;;;;;;;2.08;0.63;;;;;;;24.98;48.26;102186.97;5045567;28;20049;-34
2023/08/17 02:45:13;;;;;;;1.90;0.70;;;;;;;24.97;48.10;102185.28;5044827;28;20498;-34
2023/08/17 02:47:40;;;;;;;0.95;0.52;;;;;;;24.97;48.01;102181.72;5047109;28;20057;-34
2023/08/17 02:50:07;;;;;;;0.88;0.60;;;;;;;24.96;48.08;102185.44;5044787;28;20102;-34
2023/08/17 02:52:33;;;;;;;1.63;0.50;;;;;;;24.94;48.38;102184.78;5043557;28;20496;-34
2023/08/17 02:55:00;;;;;;;1.17;0.68;;;;;;;24.93;48.11;102189.34;5040676;28;20041;-34
2023/08/17 02:57:27;;;;;;;1.70;0.57;;;;;;;24.92;48.02;102190.34;5041028;28;20096;-34
2023/08/17 02:59:53;;;;;;;1.60;0.50;;;;;;;24.92;48.52;102200.34;5036995;28;20056;-34
2023/08/17 03:02:20;;;;;;;1.20;0.77;;;;;;;24.91;48.13;102193.25;5033045;28;20057;-34
2023/08/17 03:04:47;;;;;;;1.25;0.63;;;;;;;24.90;48.46;102194.25;5032671;28;20053;-34
2023/08/17 03:07:13;;;;;;;1.05;0.50;;;;;;;24.89;48.34;102201.56;5033608;28;20378;-34
2023/08/17 03:09:40;;;;;;;1.15;0.60;;;;;;;24.88;48.23;102194.41;5037268;28;20421;-34
2023/08/17 03:12:07;;;;;;;1.38;0.80;;;;;;;24.87;48.30;102196.28;5036595;28;20109;-34
2023/08/17 03:14:33;;;;;;;1.08;0.50;;;;;;;24.88;48.71;102199.84;5034965;28;20095;-34
2023/08/17 03:17:00;;;;;;;1.10;0.60;;;;;;;24.87;48.70;102195.44;5032020;28;20060;-34
2023/08/17 03:19:26;;;;;;;2.13;0.85;;;;;;;24.86;48.26;102191.88;5036076;28;20048;-34
2023/08/17 03:21:53;;;;;;;1.02;0.50;;;;;;;24.87;48.23;102196.28;5031275;28;20080;-34
2023/08/17 03:24:20;;;;;;;1.13;0.60;;;;;;;24.86;48.18;102189.16;5038137;28;20057;-34
2023/08/17 03:26:46;;;;;;;2.15;0.80;;;;;;;24.85;48.81;102195.59;5036252;28;20081;-34
2023/08/17 03:29:13;;;;;;;1.35;0.70;;;;;;;24.85;48.14;102187.47;5033874;28;20334;-34
2023/08/17 03:31:39;;;;;;;1.60;0.70;;;;;;;24.84;48.44;102184.91;5032673;28;20489;-34
2023/08/17 03:34:06;;;;;;;1.30;0.57;;;;;;;24.83;48.58;102184.06;5036186;28;20049;-34
2023/08/17 03:36:32;;;;;;;1.67;0.73;;;;;;;24.83;48.68;102184.06;5031578;28;20053;-34
2023/08/17 03:38:59;;;;;;;1.92;0.85;;;;;;;24.83;48.26;102188.63;5036393;28;20085;-34
2023/08/17 03:41:25;;;;;;;1.90;0.40;;;;;;;24.82;48.39;102179.66;5034616;28;20140;-34
2023/08/17 03:43:52;;;;;;;0.85;0.70;;;;;;;24.82;48.17;102176.94;5035195;28;20085;-34
2023/08/17 03:46:19;;;;;;;1.13;0.50;;;;;;;24.82;48.64;102176.09;5035042;28;20045;-34
2023/08/17 03:48:45;;;;;;;1.63;0.50;;;;;;;24.82;48.71;102167.97;5030126;28;20472;-34
2023/08/17 03:51:12;;;;;;;1.00;0.50;;;;;;;24.81;48.82;102174.41;5033553;28;20049;-34
2023/08/17 03:53:38;;;;;;;2.45;0.70;;;;;;;24.81;48.84;102169.00;5033182;28;20048;-34
2023/08/17 03:56:05;;;;;;;0.98;0.60;;;;;;;24.79;48.64;102171.00;5035287;28;20127;-34
2023/08/17 03:58:34;;;;;;;1.42;0.57;;;;;;;24.79;48.27;102179.16;5032302;28;20491;-34
2023/08/17 04:01:02;;;;;;;1.58;0.60;;;;;;;24.79;48.30;102179.16;5034129;28;20152;-34
2023/08/17 04:03:28;;;;;;;1.58;0.43;;;;;;;24.78;48.33;102172.03;5037006;28;20049;-34
2023/08/17 04:05:55;;;;;;;1.35;0.55;;;;;;;24.77;48.37;102173.91;5038404;28;20440;-34
2023/08/17 04:08:22;;;;;;;1.05;0.60;;;;;;;24.76;48.63;102177.59;5038545;28;20077;-34
2023/08/17 04:10:48;;;;;;;0.70;0.50;;;;;;;24.76;48.45;102179.47;5041519;28;20080;-34
2023/08/17 04:13:15;;;;;;;1.58;0.60;;;;;;;24.75;48.25;102178.63;5042148;28;20072;-34
2023/08/17 04:15:42;;;;;;;2.10;0.70;;;;;;;24.74;48.72;102178.81;5035996;28;20136;-34
2023/08/17 04:18:08;;;;;;;1.13;0.57;;;;;;;24.73;48.84;102175.25;5041644;28;20125;-34
2023/08/17 04:20:35;;;;;;;1.17;0.60;;;;;;;24.73;48.26;102179.81;5039909;28;20057;-34
2023/08/17 04:23:01;;;;;;;1.33;0.63;;;;;;;24.73;48.89;102177.13;5041442;28;20124;-34
2023/08/17 04:25:28;;;;;;;2.00;0.57;;;;;;;24.72;48.93;102183.53;5040687;28;20053;-33
2023/08/17 04:27:55;;;;;;;1.80;0.63;;;;;;;24.71;48.38;102179.97;5049344;28;20052;-34
2023/08/17 04:30:21;;;;;;;2.45;1.42;;;;;;;24.71;48.27;102185.41;5048659;28;20375;-34
2023/08/17 04:32:52;;;;;;;3.70;0.80;;;;;;;24.71;48.94;102171.00;5050612;28;20061;-34
2023/08/17 04:35:19;;;;;;;1.17;0.73;;;;;;;24.70;48.37;102174.72;5048954;28;20164;-33
2023/08/17 04:37:47;;;;;;;3.58;0.80;;;;;;;24.70;49.06;102174.72;5041475;28;20045;-34
2023/08/17 04:40:14;;;;;;;1.77;0.93;;;;;;;24.69;48.36;102176.59;5047521;28;20096;-34
2023/08/17 04:42:41;;;;;;;2.85;0.98;;;;;;;24.69;48.45;102175.75;5039242;28;20083;-34
2023/08/17 04:45:08;;;;;;;1.00;0.73;;;;;;;24.68;48.68;102174.88;5033928;28;20132;-34
2023/08/17 04:47:35;;;;;;;1.50;0.90;;;;;;;24.68;48.52;102184.88;5039303;28;20388;-34
2023/08/17 04:50:01;;;;;;;3.70;1.40;;;;;;;24.68;48.42;102183.00;5039252;28;20053;-33
2023/08/17 04:52:28;;;;;;;3.40;1.50;;;;;;;24.68;48.83;102187.59;5042473;28;20057;-34
2023/08/17 04:54:54;;;;;;;2.17;1.17;;;;;;;24.68;49.02;102180.28;5037674;28;20136;-34
2023/08/17 04:57:21;;;;;;;4.00;1.80;;;;;;;24.68;48.58;102176.75;5037144;28;20087;-34
2023/08/17 04:59:48;;;;;;;4.05;1.40;;;;;;;24.67;48.40;102175.03;5038556;28;20110;-34
2023/08/17 05:02:14;;;;;;;2.53;1.83;;;;;;;24.67;48.52;102175.03;5036843;28;20041;-33
2023/08/17 05:04:41;;;;;;;2.28;1.42;;;;;;;24.67;49.00;102178.59;5038362;28;20598;-34
2023/08/17 05:07:08;;;;;;;3.60;1.90;;;;;;;24.66;48.74;102182.34;5035687;28;20132;-34
2023/08/17 05:09:35;;;;;;;3.70;2.25;;;;;;;24.66;48.87;102178.78;5038002;28;20045;-34
2023/08/17 05:12:01;;;;;;;3.35;2.08;;;;;;;24.66;48.45;102176.06;5046577;28;20052;-34
2023/08/17 05:14:28;;;;;;;3.90;2.10;;;;;;;24.65;48.36;102174.38;5043764;28;20055;-33
2023/08/17 05:16:55;;;;;;;3.90;2.28;;;;;;;24.65;48.90;102174.38;5041864;28;20057;-34
2023/08/17 05:19:21;;;;;;;4.25;2.25;;;;;;;24.65;48.74;102171.66;5043341;28;20132;-33
2023/08/17 05:21:50;;;;;;;4.40;2.40;;;;;;;24.65;49.08;102177.09;5050052;28;20048;-33
2023/08/17 05:24:17;;;;;;;2.92;2.10;;;;;;;24.65;48.46;102166.25;5048049;28;20103;-33
2023/08/17 05:26:44;;;;;;;3.85;2.33;;;;;;;24.64;48.92;102165.38;5041596;28;20045;-34
2023/08/17 05:29:10;;;;;;;4.13;2.55;;;;;;;24.64;48.56;102165.38;5038549;28;20398;-34
2023/08/17 05:31:37;;;;;;;3.85;2.65;;;;;;;24.65;48.74;102163.53;5035156;28;20052;-33
2023/08/17 05:34:07;;;;;;;4.53;2.65;;;;;;;24.63;49.06;102167.25;5041100;28;20451;-34
2023/08/17 05:36:34;;;;;;;4.72;3.00;;;;;;;24.62;48.39;102168.25;5041479;28;20076;-33
2023/08/17 05:39:00;;;;;;;5.47;3.00;;;;;;;24.63;48.81;102161.81;5044936;28;20432;-33
2023/08/17 05:41:27;;;;;;;5.55;3.13;;;;;;;24.63;49.02;102161.81;5044817;28;20049;-33
2023/08/17 05:43:53;;;;;;;5.28;3.15;;;;;;;24.62;48.65;102151.16;5041923;28;20505;-34
2023/08/17 05:46:20;;;;;;;5.70;3.42;;;;;;;24.63;48.45;102166.38;5044401;28;20139;-34
2023/08/17 05:48:46;;;;;;;6.10;3.88;;;;;;;24.65;49.11;102166.25;5041313;28;20912;-34
2023/08/17 05:51:13;;;;;;;5.20;3.50;;;;;;;24.65;48.60;102167.09;5033747;28;20045;-34
2023/08/17 05:53:40;;;;;;;6.70;4.07;;;;;;;24.65;48.42;102172.50;5042824;28;20479;-34
2023/08/17 05:56:06;;;;;;;7.07;3.95;;;;;;;24.65;48.43;102169.81;5039538;28;20049;-34
2023/08/17 05:58:33;;;;;;;5.78;3.75;;;;;;;24.66;49.15;102179.63;5040360;28;20160;-34
2023/08/17 06:01:07;;;;;;;6.85;4.45;;;;;;;24.67;48.45;102180.47;5035887;28;20087;-34
2023/08/17 06:03:37;;;;;;;7.60;4.28;;;;;;;24.66;48.77;102179.63;5041999;28;20045;-34
2023/08/17 06:06:07;;;;;;;7.70;4.22;;;;;;;24.68;48.67;102179.44;5036534;28;20046;-34
2023/08/17 06:08:34;;;;;;;6.53;4.38;;;;;;;24.68;48.68;102183.00;5035548;28;20049;-34
2023/08/17 06:11:00;;;;;;;6.95;4.00;;;;;;;24.67;48.86;102178.59;5035543;28;20095;-34
2023/08/17 06:13:27;;;;;;;7.10;4.22;;;;;;;24.68;48.22;102179.44;5047427;28;20080;-34
2023/08/17 06:15:56;;;;;;;6.78;3.85;;;;;;;24.68;48.87;102185.72;5044680;28;20084;-34
2023/08/17 06:18:24;;;;;;;6.70;3.53;;;;;;;24.69;48.86;102183.88;5046154;28;20044;-34
2023/08/17 06:20:53;;;;;;;5.10;3.58;;;;;;;24.69;48.59;102190.16;5044840;28;20076;-34
2023/08/17 06:23:20;;;;;;;8.45;4.25;;;;;;;24.68;48.15;102188.44;5042131;28;20052;-33
2023/08/17 06:25:47;;;;;;;8.50;3.60;;;;;;;24.69;48.95;102195.56;5045274;28;20044;-34
2023/08/17 06:28:13;;;;;;;6.82;3.58;;;;;;;24.68;48.51;102196.56;5046399;28;20045;-34
2023/08/17 06:30:40;;;;;;;6.05;3.30;;;;;;;24.70;48.00;102191.84;5045190;28;20095;-33
2023/08/17 06:33:07;;;;;;;5.65;3.13;;;;;;;24.70;48.46;102193.72;5041811;28;20056;-34
2023/08/17 06:35:33;;;;;;;4.75;2.80;;;;;;;24.70;48.71;102199.97;5041160;28;20131;-33
2023/08/17 06:38:00;;;;;;;4.95;2.90;;;;;;;24.71;48.50;102198.09;5038689;28;20052;-33
2023/08/17 06:40:27;;;;;;;5.43;2.83;;;;;;;24.72;48.64;102195.22;5043071;28;20563;-33
2023/08/17 06:42:54;;;;;;;5.43;2.80;;;;;;;24.72;48.45;102199.78;5043063;28;20106;-33
2023/08/17 06:45:22;;;;;;;5.22;2.95;;;;;;;24.72;48.28;102194.38;5041456;28;20044;-33
2023/08/17 06:47:49;;;;;;;4.28;2.65;;;;;;;24.73;48.59;102201.50;5041526;28;20128;-33
2023/08/17 06:50:15;;;;;;;6.78;3.08;;;;;;;24.73;48.61;102201.50;5043350;28;20085;-33
2023/08/17 06:52:42;;;;;;;7.03;3.47;;;;;;;24.72;48.38;102200.63;5046417;28;20502;-33
2023/08/17 06:55:10;;;;;;;7.18;2.97;;;;;;;24.74;48.00;102201.34;5041089;28;20049;-33
2023/08/17 06:57:36;;;;;;;4.32;2.25;;;;;;;24.74;48.08;102208.63;5045564;28;20049;-33
2023/08/17 07:00:05;;;;;;;4.90;2.50;;;;;;;24.73;48.48;102206.94;5040928;28;20084;-34
2023/08/17 07:02:32;;;;;;;4.32;2.50;;;;;;;24.73;48.10;102201.50;5043155;28;20049;-34
2023/08/17 07:05:20;;;;;;;5.47;3.30;;;;;;;24.73;47.92;102207.78;5043577;28;20140;-34
2023/08/17 07:07:47;;;;;;;7.93;3.35;;;;;;;24.74;47.89;102214.91;5045804;28;20496;-34
2023/08/17 07:10:14;;;;;;;5.15;2.70;;;;;;;24.75;48.55;102216.59;5043709;28;20053;-34
2023/08/17 07:12:41;;;;;;;6.97;3.15;;;;;;;24.75;48.55;102215.75;5040990;28;20041;-34
2023/08/17 07:15:07;;;;;;;5.60;2.42;;;;;;;24.76;48.30;102212.00;5037983;28;20107;-34
2023/08/17 07:17:34;;;;;;;5.72;2.67;;;;;;;24.76;48.31;102210.13;5042798;28;20045;-34
2023/08/17 07:20:01;;;;;;;8.15;3.05;;;;;;;24.78;48.27;102210.00;5044967;28;20130;-34
2023/08/17 07:22:30;;;;;;;5.38;2.83;;;;;;;24.78;47.88;102208.13;5040991;28;20136;-34
2023/08/17 07:24:57;;;;;;;5.75;2.35;;;;;;;24.79;48.58;102200.84;5047717;28;20107;-34
2023/08/17 07:27:24;;;;;;;5.82;2.58;;;;;;;24.81;48.21;102198.81;5041021;28;20090;-34
2023/08/17 07:29:51;;;;;;;7.78;2.78;;;;;;;24.81;48.31;102201.53;5047598;28;20145;-34
2023/08/17 07:32:18;;;;;;;4.10;2.40;;;;;;;24.83;48.20;102196.78;5041739;28;20084;-34
2023/08/17 07:34:45;;;;;;;7.90;2.60;;;;;;;24.83;48.62;102192.19;5043302;28;20099;-34
2023/08/17 07:37:12;;;;;;;4.45;2.42;;;;;;;24.83;47.89;102203.03;5041473;28;20087;-34
2023/08/17 07:39:41;;;;;;;4.78;2.40;;;;;;;24.85;48.55;102200.19;5044103;28;20064;-34
2023/08/17 07:42:08;;;;;;;6.50;2.33;;;;;;;24.86;47.92;102204.59;5043107;28;20049;-34
2023/08/17 07:44:35;;;;;;;4.38;2.30;;;;;;;24.85;48.20;102206.47;5039122;28;20128;-34
2023/08/17 07:47:02;;;;;;;4.30;2.10;;;;;;;24.88;48.15;102205.25;5037948;28;20489;-34
2023/08/17 07:49:29;;;;;;;4.63;2.50;;;;;;;24.89;48.16;102206.13;5030887;28;20048;-34
2023/08/17 07:51:59;;;;;;;6.80;2.15;;;;;;;24.89;48.15;102212.41;5040431;28;20061;-34
2023/08/17 07:54:26;;;;;;;4.18;2.00;;;;;;;24.89;48.51;102212.41;5036044;28;20443;-34
2023/08/17 07:56:52;;;;;;;3.78;1.90;;;;;;;24.91;48.35;102212.22;5039076;28;20079;-34
2023/08/17 07:59:19;;;;;;;5.25;2.28;;;;;;;24.92;48.33;102212.03;5040671;28;20080;-34
2023/08/17 08:01:45;;;;;;;3.28;1.92;;;;;;;24.92;48.00;102197.63;5041156;28;20110;-34
2023/08/17 08:04:12;;;;;;;4.13;2.20;;;;;;;24.93;47.95;102205.63;5040613;28;20077;-33
2023/08/17 08:06:38;;;;;;;4.30;1.92;;;;;;;24.93;48.35;102205.63;5038715;28;20588;-34
2023/08/17 08:09:06;;;;;;;7.03;2.20;;;;;;;24.94;48.41;102207.31;5044678;28;20049;-34
2023/08/17 08:11:33;;;;;;;3.88;1.67;;;;;;;24.96;48.20;102210.69;5044575;28;20045;-34
2023/08/17 08:13:59;;;;;;;3.78;2.08;;;;;;;24.97;48.02;102203.44;5047630;28;20391;-34
2023/08/17 08:16:27;;;;;;;5.55;1.80;;;;;;;24.97;48.29;102201.56;5045633;28;20041;-34
2023/08/17 08:18:54;;;;;;;5.00;2.33;;;;;;;24.98;47.83;102194.28;5043773;28;20049;-34
2023/08/17 08:21:22;;;;;;;5.45;2.08;;;;;;;25.00;48.16;102195.78;5044348;28;20052;-34
2023/08/17 08:23:48;;;;;;;3.63;1.60;;;;;;;25.00;48.21;102184.94;5047474;28;20088;-34
2023/08/17 08:26:15;;;;;;;3.65;1.75;;;;;;;25.01;48.09;102193.94;5038571;28;20128;-34
2023/08/17 08:28:42;;;;;;;5.15;1.67;;;;;;;25.02;47.84;102201.06;5045639;28;20598;-34
2023/08/17 08:31:08;;;;;;;4.47;1.48;;;;;;;25.02;48.18;102198.34;5039248;28;20568;-34
2023/08/17 08:33:35;;;;;;;3.88;1.35;;;;;;;25.02;47.76;102193.78;5044394;28;20056;-34
2023/08/17 08:36:01;;;;;;;3.22;1.35;;;;;;;25.04;48.01;102188.16;5042868;28;20084;-34
2023/08/17 08:38:29;;;;;;;2.53;1.40;;;;;;;25.04;47.93;102191.72;5048093;28;20339;-34
2023/08/17 08:40:55;;;;;;;2.75;1.40;;;;;;;25.05;47.86;102190.72;5042112;28;20087;-34
2023/08/17 08:43:22;;;;;;;2.75;1.25;;;;;;;25.05;47.61;102179.88;5048525;28;20048;-34
2023/08/17 08:45:50;;;;;;;4.80;1.50;;;;;;;25.07;47.68;102176.97;5050006;28;20053;-34
2023/08/17 08:48:19;;;;;;;3.13;1.50;;;;;;;25.08;47.76;102184.09;5045351;28;20076;-34
2023/08/17 08:50:49;;;;;;;3.40;1.45;;;;;;;25.07;47.82;102183.25;5047349;28;20274;-34
2023/08/17 08:53:20;;;;;;;2.35;1.30;;;;;;;25.07;47.74;102187.84;5051706;28;20045;-34
2023/08/17 08:55:53;;;;;;;2.55;1.20;;;;;;;25.08;48.03;102179.53;5042320;28;20045;-34
2023/08/17 08:58:21;;;;;;;2.55;1.27;;;;;;;25.10;47.80;102171.25;5040402;28;20136;-34
2023/08/17 09:00:47;;;;;;;4.07;1.27;;;;;;;25.10;48.04;102172.09;5042936;28;20053;-34
2023/08/17 09:03:17;;;;;;;2.83;1.40;;;;;;;25.11;48.02;102176.50;5045171;28;20120;-34
2023/08/17 09:05:49;;;;;;;1.88;1.10;;;;;;;25.13;47.79;102170.06;5045069;28;20060;-34
2023/08/17 09:08:21;;;;;;;1.75;1.23;;;;;;;25.15;47.81;102174.31;5044541;28;20045;-34
2023/08/17 09:10:48;;;;;;;2.22;1.30;;;;;;;25.19;47.75;102166.69;5044489;28;20061;-34
2023/08/17 09:13:15;;;;;;;3.53;1.40;;;;;;;25.19;47.75;102180.25;5045234;28;20045;-34
2023/08/17 09:15:42;;;;;;;3.03;1.50;;;;;;;25.20;47.88;102176.50;5043356;28;20045;-34
2023/08/17 09:18:09;;;;;;;4.65;1.45;;;;;;;25.21;48.04;102172.81;5046965;28;20056;-34
2023/08/17 09:20:41;;;;;;;4.05;1.35;;;;;;;25.22;47.84;102164.47;5045157;28;20055;-34
2023/08/17 09:23:13;;;;;;;;;;;;;;;25.23;47.74;102165.31;5047650;28;20052;-34
2023/08/17 09:25:41;;;;;;;4.03;1.40;;;;;;;25.27;47.58;102169.41;5046495;28;20217;-34
2023/08/17 09:28:14;;;;;;;4.57;1.25;;;;;;;25.27;47.57;102167.53;5048975;28;20345;-34
2023/08/17 09:30:53;;;;;;;6.10;1.38;;;;;;;25.27;47.75;102162.09;5043578;28;20128;-34
2023/08/17 09:33:29;;;;;;;2.28;0.90;;;;;;;25.29;47.81;102151.94;5043444;28;21406;-34
2023/08/17 09:35:57;;;;;;;2.63;1.20;;;;;;;25.30;47.66;102152.78;5041520;28;20601;-34
2023/08/17 09:38:27;;;;;;;4.85;1.33;;;;;;;25.31;47.63;102146.31;5045450;28;20404;-34
2023/08/17 09:40:54;;;;;;;3.10;0.88;;;;;;;25.34;47.39;102159.56;5045911;28;20135;-34
2023/08/17 09:43:21;;;;;;;2.65;1.15;;;;;;;25.35;47.82;102155.81;5040746;28;20041;-34
2023/08/17 09:45:51;;;;;;;2.70;1.10;;;;;;;25.36;47.76;102152.94;5044540;28;20055;-34
2023/08/17 09:48:19;;;;;;;6.25;1.02;;;;;;;25.40;47.42;102153.44;5042934;28;20088;-34
2023/08/17 09:50:47;;;;;;;3.38;0.82;;;;;;;25.42;47.53;102147.84;5043705;28;20318;-34
2023/08/17 09:53:18;;;;;;;9.52;1.98;;;;;;;25.45;47.76;102148.38;5043475;28;20053;-34
2023/08/17 09:55:46;;;;;;;3.47;1.33;;;;;;;25.48;47.83;102137.13;5046622;28;20322;-34
2023/08/17 09:58:14;;;;;;;2.70;0.93;;;;;;;25.51;47.74;102135.97;5043794;28;20051;-34
2023/08/17 10:00:50;;;;;;;4.60;1.10;;;;;;;25.53;47.38;102132.06;5039484;28;20424;-35
2023/08/17 10:03:19;;;;;;;3.42;1.25;;;;;;;25.57;47.35;102138.00;5047481;28;20353;-34
2023/08/17 10:05:58;;;;;;;2.65;0.85;;;;;;;25.60;47.38;102134.91;5045904;28;20048;-34
2023/08/17 10:08:28;;;;;;;3.03;1.02;;;;;;;25.63;47.32;102136.44;5042209;28;20095;-34
2023/08/17 10:10:55;;;;;;;4.55;1.40;;;;;;;25.65;47.37;102134.41;5046311;28;20053;-34
2023/08/17 10:13:35;;;;;;;2.10;0.70;;;;;;;25.64;47.36;102130.00;5042115;28;20417;-34
2023/08/17 10:16:13;;;;;;;3.67;1.33;;;;;;;25.67;47.25;102126.94;5042541;28;20448;-34
2023/08/17 10:18:48;;;;;;;3.10;1.08;;;;;;;25.68;47.48;102126.75;5041696;28;20060;-34
2023/08/17 10:21:27;;;;;;;2.00;0.80;;;;;;;25.70;47.20;102127.44;5038873;28;20061;-34
2023/08/17 10:23:55;;;;;;;5.43;1.25;;;;;;;25.72;47.33;102119.94;5043704;28;20127;-34
2023/08/17 10:26:22;;;;;;;5.80;1.00;;;;;;;25.75;47.42;102124.19;5048961;28;20041;-34
2023/08/17 10:28:50;;;;;;;4.72;1.20;;;;;;;25.77;47.25;102122.13;5048922;28;20103;-34
2023/08/17 10:31:17;;;;;;;4.15;1.30;;;;;;;25.80;47.45;102125.38;5039686;28;20085;-34
2023/08/17 10:33:47;;;;;;;3.95;0.90;;;;;;;25.81;47.36;102118.97;5044276;28;20349;-34
2023/08/17 10:36:15;;;;;;;4.38;1.33;;;;;;;25.86;47.18;102114.88;5042052;28;20136;-34
2023/08/17 10:38:41;;;;;;;3.97;1.00;;;;;;;25.89;47.12;102109.06;5044258;28;20099;-34
2023/08/17 10:41:13;;;;;;;1.98;0.80;;;;;;;25.92;47.11;102111.44;5039221;28;20046;-34
2023/08/17 10:43:56;;;;;;;3.10;1.17;;;;;;;25.94;47.20;102117.56;5039435;28;20060;-34
2023/08/17 10:46:37;;;;;;;7.18;1.58;;;;;;;25.95;47.17;102119.25;5038259;28;20352;-34
2023/08/17 10:49:05;;;;;;;2.30;1.10;;;;;;;25.96;47.33;102121.78;5038002;28;20053;-34
2023/08/17 10:51:33;;;;;;;2.75;1.15;;;;;;;25.96;47.25;102124.50;5034430;28;20072;-34
2023/08/17 10:54:04;;;;;;;3.65;0.90;;;;;;;25.97;46.99;102125.34;5041407;28;20645;-34
2023/08/17 10:56:30;;;;;;;1.95;1.00;;;;;;;25.97;46.94;102118.06;5044661;28;20044;-34
2023/08/17 10:59:26;;;;;;;3.22;1.05;;;;;;;25.94;47.05;102118.41;5045197;28;20080;-34
2023/08/17 11:01:52;;;;;;;4.70;1.55;;;;;;;25.96;47.18;102119.06;5039652;28;20092;-34
2023/08/17 11:04:20;;;;;;;4.53;1.25;;;;;;;25.96;47.19;102126.38;5044029;28;20045;-34
2023/08/17 11:07:01;;;;;;;4.20;1.30;;;;;;;25.94;47.29;102126.56;5039939;28;20045;-34
2023/08/17 11:09:27;;;;;;;3.28;1.08;;;;;;;25.94;47.21;102125.72;5044265;28;20071;-34
2023/08/17 11:12:00;;;;;;;2.63;0.90;;;;;;;25.93;47.23;102130.31;5040843;28;20150;-34
2023/08/17 11:14:32;;;;;;;4.97;1.10;;;;;;;25.92;47.35;102123.16;5045301;28;20127;-34
2023/08/17 11:16:59;;;;;;;2.85;0.98;;;;;;;25.93;47.38;102118.56;5044853;28;20087;-34
2023/08/17 11:19:32;;;;;;;2.80;0.95;;;;;;;25.92;47.31;102117.72;5045156;28;20488;-34
2023/08/17 11:21:58;;;;;;;5.03;1.17;;;;;;;25.92;47.50;102112.28;5040203;28;20436;-34
2023/08/17 11:24:25;;;;;;;3.67;1.65;;;;;;;25.93;47.31;102114.00;5043348;28;20045;-34
2023/08/17 11:26:56;;;;;;;3.80;1.20;;;;;;;25.95;47.48;102105.66;5045843;28;20570;-35
2023/08/17 11:29:23;;;;;;;2.85;0.95;;;;;;;25.96;47.44;102108.19;5042809;28;20048;-35